Time;durP1;ratioP1;P1;durP2;ratioP2;P2;SDS_P1;SDS_P2;PMS_P1;PMS_P2;Temp;Humidity;BMP_temperature;BMP_pressure;BME280_temperature;BME280_humidity;BME280_pressure;Samples;Min_cycle;Max_cycle;Signal;HPM_P1;HPM_P2
2022/07/08 00:00:47;;;;;;;5.93;5.40;;;;;;;20.35;80.27;94838.47;5097315;27;20433;-86
2022/07/08 00:03:15;;;;;;;6.43;5.80;;;;;;;20.34;80.81;94844.81;5150414;27;20525;-86
2022/07/08 00:05:42;;;;;;;7.10;5.60;;;;;;;20.33;80.58;94837.84;5150654;27;20448;-85
2022/07/08 00:08:09;;;;;;;7.27;5.60;;;;;;;20.31;80.47;94821.22;5150794;27;20438;-87
2022/07/08 00:10:36;;;;;;;5.70;5.20;;;;;;;20.35;80.56;94821.66;5150461;27;20489;-87
2022/07/08 00:13:03;;;;;;;6.30;5.70;;;;;;;20.38;80.09;94821.28;5150338;27;20430;-90
2022/07/08 00:15:30;;;;;;;6.27;5.70;;;;;;;20.34;79.76;94810.19;5150528;27;20453;-87
2022/07/08 00:17:57;;;;;;;6.20;5.70;;;;;;;20.29;79.63;94809.94;5150648;27;20920;-87
2022/07/08 00:20:25;;;;;;;6.13;5.63;;;;;;;20.30;79.70;94816.91;5113995;27;20449;-87
2022/07/08 00:22:52;;;;;;;6.30;5.80;;;;;;;20.27;79.56;94808.47;5118169;27;20446;-86
2022/07/08 00:25:19;;;;;;;6.80;6.23;;;;;;;20.25;79.61;94818.50;5136140;27;20446;-88
2022/07/08 00:27:46;;;;;;;6.33;5.83;;;;;;;20.23;79.53;94826.66;5135977;27;20446;-87
2022/07/08 00:30:13;;;;;;;6.03;5.53;;;;;;;20.21;79.40;94818.03;5136070;27;20481;-86
2022/07/08 00:32:40;;;;;;;5.97;5.27;;;;;;;20.22;80.08;94819.69;5083231;27;20445;-87
2022/07/08 00:35:08;;;;;;;6.37;5.80;;;;;;;20.21;79.97;94818.03;5136402;27;20527;-85
2022/07/08 00:37:36;;;;;;;5.83;5.20;;;;;;;20.24;79.99;94817.69;5136531;27;20456;-87
2022/07/08 00:40:03;;;;;;;5.80;5.30;;;;;;;20.25;79.82;94824.66;5136413;27;20541;-86
2022/07/08 00:42:30;;;;;;;6.67;6.07;;;;;;;20.19;80.04;94817.41;5136079;27;20454;-86
2022/07/08 00:44:57;;;;;;;6.63;6.13;;;;;;;20.24;80.08;94820.34;5135975;27;20447;-87
2022/07/08 00:47:25;;;;;;;6.40;5.90;;;;;;;20.27;80.51;94816.47;5136197;27;20443;-87
2022/07/08 00:49:53;;;;;;;14.03;6.60;;;;;;;20.19;80.87;94812.06;5135497;27;20462;-87
2022/07/08 00:52:20;;;;;;;7.63;6.93;;;;;;;20.19;81.28;94813.91;5135663;27;20438;-87
2022/07/08 00:54:48;;;;;;;13.83;7.43;;;;;;;20.17;82.20;94819.44;5135604;27;20447;-87
2022/07/08 00:57:15;;;;;;;10.53;9.43;;;;;;;20.21;82.70;94811.88;5135746;27;20951;-87
2022/07/08 00:59:43;;;;;;;7.70;7.00;;;;;;;20.24;82.39;94823.00;5135502;27;20447;-87
2022/07/08 01:02:10;;;;;;;10.83;7.80;;;;;;;20.25;82.47;94818.50;5116683;27;20447;-86
2022/07/08 01:04:37;;;;;;;7.77;7.07;;;;;;;20.24;82.33;94804.38;5137142;27;20438;-87
2022/07/08 01:07:06;;;;;;;8.90;7.30;;;;;;;20.30;82.31;94816.09;5135333;27;20439;-86
2022/07/08 01:09:33;;;;;;;6.67;6.00;;;;;;;20.27;81.17;94817.31;5135355;27;20469;-87
2022/07/08 01:12:02;;;;;;;7.30;6.50;;;;;;;20.32;80.18;94819.38;5134364;27;20448;-87
2022/07/08 01:14:29;;;;;;;6.00;5.40;;;;;;;20.25;80.39;94818.50;5135294;27;20563;-87
2022/07/08 01:16:56;;;;;;;6.73;5.93;;;;;;;20.23;80.50;94817.84;5135131;27;20443;-86
2022/07/08 01:19:23;;;;;;;10.33;6.30;;;;;;;20.21;80.61;94817.22;5098991;27;20441;-86
2022/07/08 01:21:51;;;;;;;6.30;5.70;;;;;;;20.19;80.90;94820.06;5135334;27;20457;-87
2022/07/08 01:24:18;;;;;;;10.70;6.50;;;;;;;20.20;80.83;94821.72;5135005;27;20442;-87
2022/07/08 01:26:45;;;;;;;6.30;5.53;;;;;;;20.18;80.87;94818.41;5134920;27;20449;-86
2022/07/08 01:29:12;;;;;;;6.10;5.63;;;;;;;20.22;80.92;94813.53;5134949;27;20438;-88
2022/07/08 01:31:39;;;;;;;7.13;6.53;;;;;;;20.27;81.00;94816.47;5134569;27;20543;-86
2022/07/08 01:34:07;;;;;;;6.30;5.70;;;;;;;20.23;81.07;94813.34;5133842;27;20449;-86
2022/07/08 01:36:34;;;;;;;5.80;5.40;;;;;;;20.26;80.91;94820.16;5134964;27;20443;-86
2022/07/08 01:39:02;;;;;;;7.13;6.43;;;;;;;20.27;80.95;94822.63;5134938;27;20438;-88
2022/07/08 01:41:29;;;;;;;15.33;7.00;;;;;;;20.28;81.70;94816.28;5134788;27;21007;-87
2022/07/08 01:43:58;;;;;;;6.30;5.77;;;;;;;20.31;81.73;94818.56;5134671;27;20446;-86
2022/07/08 01:46:25;;;;;;;7.30;6.07;;;;;;;20.31;81.56;94818.56;5081634;27;20442;-88
2022/07/08 01:48:52;;;;;;;6.23;5.73;;;;;;;20.30;81.30;94814.25;5134299;27;20475;-89
2022/07/08 01:51:19;;;;;;;6.43;5.87;;;;;;;20.31;81.35;94812.41;5134729;27;20480;-85
2022/07/08 01:53:46;;;;;;;12.20;6.73;;;;;;;20.28;81.30;94815.47;5134480;27;20435;-87
2022/07/08 01:56:14;;;;;;;7.30;6.57;;;;;;;20.24;81.41;94823.00;5134586;27;20449;-87
2022/07/08 01:58:41;;;;;;;7.03;5.80;;;;;;;20.23;81.70;94815.19;5134366;27;20443;-88
2022/07/08 02:01:08;;;;;;;9.07;7.00;;;;;;;20.24;81.58;94823.00;5134201;27;20447;-87
2022/07/08 02:03:34;;;;;;;8.07;6.30;;;;;;;20.23;81.44;94821.34;5134546;27;20438;-87
2022/07/08 02:06:01;;;;;;;6.50;5.90;;;;;;;20.22;81.35;94819.69;5134653;27;20936;-86
2022/07/08 02:08:28;;;;;;;6.10;5.60;;;;;;;20.23;81.35;94825.84;5134130;27;20843;-87
2022/07/08 02:13:41;;;;;;;7.40;6.27;;;;;;;20.21;81.15;94822.53;5134310;27;20467;-87
2022/07/08 02:16:08;;;;;;;6.03;5.53;;;;;;;20.15;81.15;94817.97;5134039;27;21013;-87
2022/07/08 02:18:35;;;;;;;10.67;6.10;;;;;;;20.18;81.23;94820.25;5138189;27;20475;-87
2022/07/08 02:21:02;;;;;;;6.43;5.93;;;;;;;20.12;80.76;94829.84;5134156;27;20426;-90
2022/07/08 02:23:29;;;;;;;7.37;6.60;;;;;;;20.08;80.99;94829.41;5097779;27;20438;-86
2022/07/08 02:25:56;;;;;;;7.03;6.40;;;;;;;20.07;81.02;94829.59;5097646;27;20446;-86
2022/07/08 02:28:23;;;;;;;7.93;6.13;;;;;;;20.06;81.23;94830.63;5133846;27;20449;-88
2022/07/08 02:30:52;;;;;;;6.30;5.70;;;;;;;20.06;81.28;94834.09;5134036;27;20489;-85
2022/07/08 02:33:18;;;;;;;7.60;7.00;;;;;;;20.05;81.30;94834.28;5133918;27;20434;-88
2022/07/08 02:35:45;;;;;;;6.93;6.37;;;;;;;20.01;81.09;94830.38;5133650;27;20541;-86
2022/07/08 02:38:12;;;;;;;6.97;5.60;;;;;;;20.01;81.15;94838.34;5114656;27;20461;-86
2022/07/08 02:40:39;;;;;;;6.80;6.20;;;;;;;20.01;81.39;94838.34;5133522;27;20454;-87
2022/07/08 02:43:09;;;;;;;6.63;6.07;;;;;;;20.01;81.28;94843.69;5097665;27;20445;-86
2022/07/08 02:45:37;;;;;;;6.37;5.87;;;;;;;19.89;81.53;94839.84;5133594;27;20434;-87
2022/07/08 02:48:05;;;;;;;10.70;6.70;;;;;;;19.82;81.55;94838.94;5133422;27;20953;-86
2022/07/08 02:50:32;;;;;;;8.17;6.90;;;;;;;19.77;81.71;94842.19;5133578;27;20439;-87
2022/07/08 02:52:59;;;;;;;6.13;5.63;;;;;;;19.70;81.81;94842.13;5133641;27;20445;-86
2022/07/08 02:55:26;;;;;;;7.70;6.97;;;;;;;19.69;81.96;94847.63;5097527;27;20450;-86
2022/07/08 02:57:53;;;;;;;8.73;7.00;;;;;;;19.62;82.06;94838.72;5133590;27;20871;-87
2022/07/08 03:00:20;;;;;;;5.90;5.43;;;;;;;19.61;82.04;94845.88;5133357;27;20928;-86
2022/07/08 03:02:47;;;;;;;10.37;6.03;;;;;;;19.54;82.15;94837.00;5133611;27;20437;-86
2022/07/08 03:05:15;;;;;;;6.67;6.17;;;;;;;19.54;82.00;94852.97;5133621;27;20807;-86
2022/07/08 03:07:42;;;;;;;13.60;6.73;;;;;;;19.48;82.34;94851.00;5133292;27;20439;-86
2022/07/08 03:10:10;;;;;;;7.33;5.60;;;;;;;19.43;82.39;94845.44;5133118;28;20485;-88
2022/07/08 03:12:36;;;;;;;7.00;6.30;;;;;;;19.43;82.36;94848.91;5097442;28;20478;-87
2022/07/08 03:15:04;;;;;;;6.70;6.20;;;;;;;19.38;82.47;94835.34;5133290;28;20426;-86
2022/07/08 03:17:31;;;;;;;7.77;6.80;;;;;;;19.31;82.87;94837.06;5133371;28;20454;-86
2022/07/08 03:19:57;;;;;;;6.40;5.80;;;;;;;19.29;83.02;94836.44;5097339;28;20438;-88
2022/07/08 03:22:26;;;;;;;7.33;6.50;;;;;;;19.22;83.63;94834.69;5133336;28;20457;-87
2022/07/08 03:24:53;;;;;;;6.63;6.17;;;;;;;19.18;83.90;94831.59;5132976;28;20439;-88
2022/07/08 03:27:20;;;;;;;7.53;6.57;;;;;;;19.15;84.27;94831.97;5133392;28;20492;-86
2022/07/08 03:29:47;;;;;;;6.43;5.93;;;;;;;19.17;84.37;94832.59;5133330;28;20870;-88
2022/07/08 03:32:13;;;;;;;6.73;6.17;;;;;;;19.18;84.33;94837.72;5133120;28;20482;-87
2022/07/08 03:34:40;;;;;;;7.23;6.53;;;;;;;19.20;84.52;94829.56;5133230;28;20442;-89
2022/07/08 03:37:07;;;;;;;6.70;6.10;;;;;;;19.36;84.34;94837.34;5133018;28;20455;-87
2022/07/08 03:39:36;;;;;;;7.10;6.50;;;;;;;19.58;83.32;94843.59;5133185;28;20454;-86
2022/07/08 03:42:01;;;;;;;6.73;6.17;;;;;;;19.66;81.63;94842.66;5133145;28;20446;-86
2022/07/08 03:44:29;;;;;;;6.53;6.03;;;;;;;19.65;81.36;94846.31;5133047;28;20456;-87
2022/07/08 03:46:56;;;;;;;7.57;6.80;;;;;;;19.61;81.28;94843.22;5133124;28;20439;-87
2022/07/08 03:49:23;;;;;;;8.73;5.93;;;;;;;19.63;81.45;94849.19;5096673;28;20448;-87
2022/07/08 03:51:50;;;;;;;7.97;6.17;;;;;;;19.78;81.12;94851.81;5133143;28;20862;-88
2022/07/08 03:54:17;;;;;;;7.00;6.40;;;;;;;20.07;80.35;94850.91;5132801;28;20466;-86
2022/07/08 03:56:45;;;;;;;5.90;5.30;;;;;;;20.45;78.36;94853.34;5133910;27;20449;-87
2022/07/08 03:59:12;;;;;;;8.73;6.40;;;;;;;20.81;76.17;94851.38;5136832;27;20887;-87
2022/07/08 04:01:39;;;;;;;6.60;5.90;;;;;;;21.23;74.95;94860.31;5136721;27;20526;-86
2022/07/08 04:04:06;;;;;;;8.10;6.00;;;;;;;21.66;73.21;94860.97;5136490;27;20450;-86
2022/07/08 04:06:33;;;;;;;5.73;5.30;;;;;;;22.02;71.75;94860.72;5136918;27;20435;-88
2022/07/08 04:09:00;;;;;;;6.97;5.70;;;;;;;22.38;69.74;94863.06;5134626;27;20450;-87
2022/07/08 04:11:27;;;;;;;8.60;5.57;;;;;;;22.55;68.71;94867.03;5135988;27;20541;-88
2022/07/08 04:13:56;;;;;;;7.47;6.33;;;;;;;22.75;67.73;94866.19;5136456;27;20519;-87
2022/07/08 04:16:23;;;;;;;7.70;5.90;;;;;;;22.89;67.35;94867.06;5136548;27;20437;-87
2022/07/08 04:18:50;;;;;;;9.70;6.03;;;;;;;23.21;66.74;94868.88;5136946;27;20458;-87
2022/07/08 04:21:17;;;;;;;9.47;5.30;;;;;;;23.57;65.39;94868.41;5137010;27;20455;-87
2022/07/08 04:23:44;;;;;;;6.03;5.53;;;;;;;23.89;64.47;94857.78;5136575;27;20451;-87
2022/07/08 04:26:11;;;;;;;6.97;5.50;;;;;;;24.22;63.40;94863.81;5102450;27;20443;-86
2022/07/08 04:28:38;;;;;;;6.87;6.27;;;;;;;24.60;62.18;94871.06;5136586;27;20973;-87
2022/07/08 04:31:06;;;;;;;5.20;4.80;;;;;;;24.87;61.20;94864.44;5136150;27;20446;-87
2022/07/08 04:33:33;;;;;;;5.97;5.47;;;;;;;25.13;60.28;94866.09;5136144;27;20937;-86
2022/07/08 04:36:00;;;;;;;7.00;5.00;;;;;;;25.37;59.96;94866.28;5136281;27;20440;-87
2022/07/08 04:38:27;;;;;;;10.40;5.97;;;;;;;25.71;58.77;94871.13;5136113;27;20434;-87
2022/07/08 04:40:54;;;;;;;12.00;6.13;;;;;;;26.02;57.77;94867.47;5136241;27;20439;-86
2022/07/08 04:43:21;;;;;;;6.50;5.90;;;;;;;26.34;57.03;94875.34;5136318;27;20444;-87
2022/07/08 04:45:47;;;;;;;7.67;5.33;;;;;;;26.63;56.40;94865.63;5135825;27;20452;-87
2022/07/08 04:48:16;;;;;;;12.40;7.10;;;;;;;26.80;55.67;94863.91;5136250;27;20445;-89
2022/07/08 04:50:43;;;;;;;9.77;6.70;;;;;;;26.88;55.96;94863.56;5135979;27;20532;-87
2022/07/08 04:53:10;;;;;;;6.13;5.60;;;;;;;26.54;56.61;94862.41;5136066;27;20853;-87
2022/07/08 04:55:36;;;;;;;7.53;6.87;;;;;;;25.68;58.76;94857.31;5135811;27;21023;-87
2022/07/08 04:58:05;;;;;;;10.40;7.20;;;;;;;25.45;61.73;94866.03;5135961;27;20454;-87
2022/07/08 05:00:33;;;;;;;11.13;7.30;;;;;;;24.99;61.83;94865.41;5135498;27;20542;-90
2022/07/08 05:03:01;;;;;;;14.40;7.87;;;;;;;24.74;63.24;94861.84;5135897;27;20462;-87
2022/07/08 05:05:30;;;;;;;8.03;7.23;;;;;;;25.06;62.38;94868.03;5135794;27;20450;-89
2022/07/08 05:07:57;;;;;;;8.30;6.60;;;;;;;25.37;62.57;94868.97;5135371;27;21013;-87
2022/07/08 05:10:25;;;;;;;8.53;6.40;;;;;;;25.33;61.86;94858.69;5135774;27;20484;-86
2022/07/08 05:12:52;;;;;;;11.57;6.50;;;;;;;25.63;61.51;94871.38;5135868;27;20474;-88
2022/07/08 05:15:19;;;;;;;7.17;6.40;;;;;;;25.75;60.61;94864.28;5135826;27;20448;-88
2022/07/08 05:17:47;;;;;;;7.30;6.70;;;;;;;25.84;60.40;94857.53;5136165;27;20450;-86
2022/07/08 05:20:14;;;;;;;15.20;9.07;;;;;;;26.02;59.41;94861.25;5135981;27;20443;-88
2022/07/08 05:22:43;;;;;;;7.00;6.40;;;;;;;26.18;59.87;94868.69;5135362;27;20439;-86
2022/07/08 05:25:11;;;;;;;9.37;7.00;;;;;;;26.33;59.27;94862.94;5135569;27;20443;-87
2022/07/08 05:27:38;;;;;;;10.13;8.20;;;;;;;26.47;58.43;94869.78;5135388;27;20444;-88
2022/07/08 05:30:07;;;;;;;12.13;7.70;;;;;;;26.79;58.39;94870.34;5135467;27;20444;-87
2022/07/08 05:32:35;;;;;;;7.77;6.97;;;;;;;26.84;57.66;94865.06;5082390;27;20480;-87
2022/07/08 05:35:02;;;;;;;11.17;7.43;;;;;;;27.19;56.14;94872.44;5135306;27;20454;-89
2022/07/08 05:37:29;;;;;;;10.20;8.40;;;;;;;27.34;55.35;94862.81;5135204;27;20488;-90
2022/07/08 05:39:57;;;;;;;9.17;7.53;;;;;;;27.57;55.89;94859.28;5135077;27;20751;-89
2022/07/08 05:42:25;;;;;;;10.90;9.40;;;;;;;27.85;55.06;94863.16;5135413;27;20446;-88
2022/07/08 05:44:52;;;;;;;8.53;7.83;;;;;;;27.89;54.92;94865.13;5135742;27;20448;-89
2022/07/08 05:47:19;;;;;;;10.77;8.90;;;;;;;27.47;56.14;94861.78;5134936;27;20444;-88
2022/07/08 05:49:46;;;;;;;12.93;8.33;;;;;;;27.80;55.59;94857.66;5134605;27;20453;-88
2022/07/08 05:52:13;;;;;;;8.80;7.70;;;;;;;27.97;54.57;94850.44;5135250;27;20975;-89
2022/07/08 05:54:45;;;;;;;8.60;7.63;;;;;;;28.20;54.18;94850.38;5134819;27;20447;-87
2022/07/08 05:57:13;;;;;;;7.23;6.30;;;;;;;28.32;53.11;94851.16;5134794;27;20454;-86
2022/07/08 05:59:41;;;;;;;8.70;7.83;;;;;;;28.40;53.34;94852.69;5134647;27;20513;-90
2022/07/08 06:02:08;;;;;;;10.70;8.33;;;;;;;27.94;53.25;94850.94;5134660;27;20454;-89
2022/07/08 06:04:35;;;;;;;6.63;6.00;;;;;;;27.86;55.04;94849.44;5134705;27;20454;-88
2022/07/08 06:07:02;;;;;;;7.87;7.13;;;;;;;28.11;54.24;94851.00;5134698;27;20476;-87
2022/07/08 06:09:29;;;;;;;11.63;8.17;;;;;;;28.21;53.52;94846.63;5134342;27;20442;-88
2022/07/08 06:11:56;;;;;;;11.30;8.97;;;;;;;28.37;53.29;94847.78;5134242;27;20478;-87
2022/07/08 06:14:24;;;;;;;12.67;7.27;;;;;;;28.58;52.95;94847.06;5134481;27;20450;-88
2022/07/08 06:16:51;;;;;;;9.13;7.07;;;;;;;28.93;52.25;94846.91;5134825;27;20440;-87
2022/07/08 06:19:18;;;;;;;8.60;6.90;;;;;;;29.18;51.79;94857.28;5134271;27;20439;-88
2022/07/08 06:21:45;;;;;;;10.10;7.90;;;;;;;29.06;50.99;94851.16;5134502;27;20526;-88
2022/07/08 06:24:12;;;;;;;8.30;7.30;;;;;;;28.88;51.12;94849.50;5134256;27;20447;-89
2022/07/08 06:26:39;;;;;;;8.10;7.40;;;;;;;28.16;53.49;94841.13;5134215;27;20469;-88
2022/07/08 06:29:06;;;;;;;14.40;7.70;;;;;;;28.19;53.44;94840.66;5134172;27;20989;-89
2022/07/08 06:31:36;;;;;;;9.50;8.00;;;;;;;28.17;55.35;94842.78;5133722;27;20435;-88
2022/07/08 06:34:03;;;;;;;9.87;8.87;;;;;;;28.13;54.73;94838.91;5133907;27;20443;-87
2022/07/08 06:36:32;;;;;;;8.73;7.90;;;;;;;28.38;54.38;94833.22;5133784;27;20480;-89
2022/07/08 06:38:59;;;;;;;9.70;8.67;;;;;;;28.67;53.24;94825.91;5133995;27;20485;-89
2022/07/08 06:41:26;;;;;;;8.90;8.00;;;;;;;28.21;53.43;94821.50;5133927;27;20449;-87
2022/07/08 06:43:53;;;;;;;9.73;8.73;;;;;;;28.30;54.53;94823.59;5134276;27;20451;-87
2022/07/08 06:46:20;;;;;;;10.20;9.13;;;;;;;28.35;54.37;94815.63;5134266;27;20455;-87
2022/07/08 06:48:49;;;;;;;10.20;8.77;;;;;;;28.81;53.12;94813.69;5133936;27;20454;-87
2022/07/08 06:51:16;;;;;;;11.10;8.90;;;;;;;29.02;51.74;94822.19;5133772;27;20460;-88
2022/07/08 06:56:29;;;;;;;12.97;8.90;;;;;;;28.94;52.03;94813.44;5050552;28;20507;-87
2022/07/08 06:58:56;;;;;;;9.43;8.13;;;;;;;29.16;52.81;94805.38;5050913;28;20992;-88
2022/07/08 07:01:23;;;;;;;7.97;7.27;;;;;;;29.49;51.40;94809.09;5050175;28;20456;-88
2022/07/08 07:03:51;;;;;;;14.23;9.43;;;;;;;29.77;50.44;94803.53;5050300;28;20928;-88
2022/07/08 07:06:18;;;;;;;12.13;9.70;;;;;;;29.70;49.38;94796.69;5050400;28;20455;-87
2022/07/08 07:08:46;;;;;;;8.60;7.77;;;;;;;29.74;50.59;94798.63;5050552;28;20449;-87
2022/07/08 07:11:13;;;;;;;15.20;8.80;;;;;;;30.07;49.91;94800.44;5049897;28;20495;-88
2022/07/08 07:13:40;;;;;;;13.07;9.47;;;;;;;30.02;49.36;94797.59;5049759;28;20494;-87
2022/07/08 07:16:08;;;;;;;10.67;9.00;;;;;;;29.84;50.08;94785.25;5050044;28;20449;-88
2022/07/08 07:18:35;;;;;;;10.13;7.87;;;;;;;29.82;49.24;94775.75;5049841;28;20432;-88
2022/07/08 07:21:04;;;;;;;12.13;8.90;;;;;;;30.06;48.57;94787.94;5050245;28;20447;-87
2022/07/08 07:23:31;;;;;;;10.57;7.10;;;;;;;30.18;49.13;94791.34;5050192;28;20438;-88
2022/07/08 07:25:58;;;;;;;9.63;8.57;;;;;;;30.21;48.87;94790.00;5050471;28;20454;-88
2022/07/08 07:28:25;;;;;;;9.63;7.90;;;;;;;29.99;48.41;94779.16;5050122;28;20959;-89
2022/07/08 07:30:52;;;;;;;10.60;7.70;;;;;;;29.99;48.50;94786.47;5050051;28;20470;-88
2022/07/08 07:33:19;;;;;;;9.50;7.87;;;;;;;30.04;48.36;94789.25;5089316;27;20484;-87
2022/07/08 07:35:46;;;;;;;8.93;6.50;;;;;;;30.10;49.01;94789.09;5137970;27;20453;-87
2022/07/08 07:38:14;;;;;;;8.67;6.73;;;;;;;29.54;47.90;94785.69;5137425;27;20453;-90
2022/07/08 07:40:41;;;;;;;11.00;7.30;;;;;;;29.82;48.83;94794.69;5138132;27;20531;-88
2022/07/08 07:43:08;;;;;;;8.40;6.23;;;;;;;30.10;49.10;94791.78;5137940;27;20443;-88
2022/07/08 07:45:35;;;;;;;8.43;6.47;;;;;;;30.24;46.84;94796.81;5138683;27;20452;-88
2022/07/08 07:48:02;;;;;;;11.50;6.33;;;;;;;30.30;48.24;94784.94;5138118;27;20513;-89
2022/07/08 07:50:29;;;;;;;5.97;5.50;;;;;;;30.20;47.35;94794.59;5137478;27;20445;-89
2022/07/08 07:52:56;;;;;;;6.70;5.50;;;;;;;29.95;47.34;94788.06;5137280;27;20507;-88
2022/07/08 07:55:24;;;;;;;7.33;5.63;;;;;;;30.03;47.55;94788.44;5137333;27;20447;-88
2022/07/08 07:57:51;;;;;;;7.70;6.40;;;;;;;30.25;46.99;94788.44;5137579;27;20457;-89
2022/07/08 08:00:19;;;;;;;8.70;6.43;;;;;;;30.56;46.91;94794.97;5137638;27;20450;-88
2022/07/08 08:02:46;;;;;;;5.67;5.20;;;;;;;30.49;45.84;94787.03;5137229;27;20463;-90
2022/07/08 08:05:14;;;;;;;5.13;4.73;;;;;;;30.57;46.38;94793.06;5136979;27;20939;-88
2022/07/08 08:07:42;;;;;;;5.40;5.00;;;;;;;30.58;46.21;94797.41;5136879;27;20426;-88
2022/07/08 08:10:11;;;;;;;6.10;5.60;;;;;;;30.39;46.06;94794.25;5136690;27;20561;-90
2022/07/08 08:12:40;;;;;;;5.40;5.00;;;;;;;29.76;45.85;94792.97;5137063;27;20474;-88
2022/07/08 08:15:08;;;;;;;5.63;5.13;;;;;;;29.86;47.06;94788.50;5136918;27;20457;-88
2022/07/08 08:17:38;;;;;;;5.43;4.93;;;;;;;29.90;46.83;94794.22;5136951;27;20426;-87
2022/07/08 08:20:07;;;;;;;6.30;5.23;;;;;;;29.92;45.23;94792.09;5137296;27;20454;-86
2022/07/08 08:22:34;;;;;;;5.47;4.80;;;;;;;30.03;46.90;94791.16;5136895;27;20445;-88
2022/07/08 08:25:01;;;;;;;5.60;4.50;;;;;;;29.96;45.77;94790.50;5137058;27;20464;-88
2022/07/08 08:27:28;;;;;;;4.40;4.10;;;;;;;29.69;45.92;94795.03;5137082;27;20448;-89
2022/07/08 08:29:56;;;;;;;5.10;4.70;;;;;;;29.72;44.58;94789.13;5136727;27;20457;-88
2022/07/08 08:32:23;;;;;;;5.13;4.73;;;;;;;29.70;46.42;94783.16;5136604;27;20523;-88
2022/07/08 08:34:50;;;;;;;6.83;4.50;;;;;;;29.50;45.99;94773.72;5136409;27;20450;-89
2022/07/08 08:37:17;;;;;;;5.63;5.23;;;;;;;29.29;46.78;94779.88;5136580;27;20973;-88
2022/07/08 08:39:44;;;;;;;5.90;4.93;;;;;;;29.13;47.34;94772.63;5136631;27;20570;-89
2022/07/08 08:42:11;;;;;;;4.97;4.60;;;;;;;28.97;47.10;94775.09;5136375;27;20446;-87
2022/07/08 08:44:38;;;;;;;5.47;5.07;;;;;;;29.07;46.99;94774.44;5136377;27;20453;-88
2022/07/08 08:47:08;;;;;;;4.63;4.23;;;;;;;29.09;47.75;94769.59;5136387;27;20441;-87
2022/07/08 08:49:36;;;;;;;6.50;5.10;;;;;;;28.91;47.14;94769.84;5136798;27;20461;-89
2022/07/08 08:52:04;;;;;;;6.80;5.43;;;;;;;29.01;48.22;94764.63;5136924;27;20452;-88
2022/07/08 08:54:34;;;;;;;5.23;4.83;;;;;;;28.74;48.88;94756.34;5135439;27;20475;-88
2022/07/08 08:57:02;;;;;;;4.97;4.67;;;;;;;28.90;46.91;94755.53;5136430;27;20853;-87
2022/07/08 08:59:30;;;;;;;9.20;5.20;;;;;;;28.97;47.08;94753.50;5136075;27;20451;-89
2022/07/08 09:01:58;;;;;;;5.90;5.30;;;;;;;29.19;46.64;94747.28;5136020;27;20457;-89
2022/07/08 09:04:28;;;;;;;4.97;4.53;;;;;;;29.24;45.50;94739.28;5136391;27;20452;-89
2022/07/08 09:06:55;;;;;;;9.00;5.03;;;;;;;29.35;45.82;94737.50;5136195;27;20453;-88
2022/07/08 09:09:21;;;;;;;5.70;5.27;;;;;;;29.20;46.11;94744.38;5135624;27;20459;-87
2022/07/08 09:11:48;;;;;;;5.57;5.17;;;;;;;29.08;48.74;94742.81;5135410;27;20471;-86
2022/07/08 09:14:17;;;;;;;7.23;5.37;;;;;;;29.07;45.89;94741.19;5135604;27;20490;-87
2022/07/08 09:17:07;;;;;;;6.60;4.73;;;;;;;29.31;46.03;94731.78;5135921;27;20484;-87
2022/07/08 09:19:36;;;;;;;11.00;5.27;;;;;;;29.43;45.90;94734.38;5135718;27;20446;-89
2022/07/08 09:22:03;;;;;;;6.00;4.93;;;;;;;29.56;45.23;94740.25;5135640;27;20926;-87
2022/07/08 09:24:32;;;;;;;4.50;4.20;;;;;;;29.03;47.30;94730.06;5135519;27;20440;-87
2022/07/08 09:27:03;;;;;;;7.40;5.53;;;;;;;28.72;48.53;94715.25;5134852;27;20451;-86
2022/07/08 09:29:30;;;;;;;8.93;5.43;;;;;;;28.62;48.82;94720.47;5135311;27;20856;-87
2022/07/08 09:32:09;;;;;;;6.10;4.30;;;;;;;28.87;48.52;94731.69;5135221;27;20431;-87
2022/07/08 09:34:38;;;;;;;9.60;5.20;;;;;;;29.07;45.55;94724.97;5134965;27;21050;-87
2022/07/08 09:37:12;;;;;;;5.63;4.30;;;;;;;29.20;46.07;94730.00;5135152;27;20442;-89
2022/07/08 09:39:39;;;;;;;5.80;5.07;;;;;;;28.82;44.38;94720.78;5135179;27;20538;-86
2022/07/08 09:42:08;;;;;;;6.60;4.50;;;;;;;28.88;43.48;94717.13;5134845;27;21123;-87
2022/07/08 09:44:34;;;;;;;4.67;4.27;;;;;;;28.81;45.67;94704.84;5134808;27;20442;-86
2022/07/08 09:47:02;;;;;;;6.40;4.90;;;;;;;28.60;49.70;94701.81;5082216;27;20446;-86
2022/07/08 09:49:29;;;;;;;4.87;4.57;;;;;;;28.68;48.48;94706.81;5134996;27;20932;-85
2022/07/08 09:51:59;;;;;;;5.97;5.13;;;;;;;28.70;48.87;94701.19;5134648;27;20438;-86
2022/07/08 09:54:27;;;;;;;5.33;4.80;;;;;;;28.49;47.75;94701.91;5134047;27;20478;-87
2022/07/08 09:57:02;;;;;;;5.43;4.93;;;;;;;28.63;47.87;94693.25;5134930;27;20445;-86
2022/07/08 09:59:30;;;;;;;4.60;4.30;;;;;;;28.67;47.27;94696.28;5134841;27;20444;-86
2022/07/08 10:01:58;;;;;;;5.67;5.20;;;;;;;28.79;47.29;94693.47;5082453;27;20517;-86
2022/07/08 10:04:26;;;;;;;5.03;4.73;;;;;;;28.27;48.38;94693.72;5098693;27;20450;-86
2022/07/08 10:06:54;;;;;;;5.40;5.00;;;;;;;27.90;49.03;94690.63;5134385;27;20804;-87
2022/07/08 10:09:24;;;;;;;4.90;4.60;;;;;;;27.83;50.86;94688.09;5134379;27;20456;-85
2022/07/08 10:11:52;;;;;;;5.53;5.00;;;;;;;28.09;49.39;94686.66;5134138;27;20471;-88
2022/07/08 10:14:20;;;;;;;5.17;4.60;;;;;;;28.25;48.88;94683.19;5133991;27;20991;-87
2022/07/08 10:16:48;;;;;;;6.73;4.80;;;;;;;28.27;49.49;94670.25;5134381;27;20452;-86
2022/07/08 10:19:19;;;;;;;5.07;4.67;;;;;;;28.23;45.72;94676.34;5134320;27;20449;-86
2022/07/08 10:21:51;;;;;;;5.10;4.57;;;;;;;28.38;46.17;94668.56;5133965;27;20434;-88
2022/07/08 10:24:25;;;;;;;4.40;4.10;;;;;;;28.46;45.67;94656.53;5097931;27;20434;-86
2022/07/08 10:26:52;;;;;;;5.50;5.10;;;;;;;28.40;49.51;94661.03;5099024;27;20936;-86
2022/07/08 10:29:29;;;;;;;5.00;4.70;;;;;;;28.24;47.03;94664.50;5133818;27;20445;-86
2022/07/08 10:31:56;;;;;;;5.00;4.50;;;;;;;28.28;46.89;94652.19;5133996;27;20453;-87
2022/07/08 10:34:29;;;;;;;4.90;4.50;;;;;;;28.22;46.46;94648.56;5133821;27;20490;-87
2022/07/08 10:36:56;;;;;;;5.10;4.73;;;;;;;28.08;48.52;94645.38;5134081;27;20473;-85
2022/07/08 10:39:29;;;;;;;7.50;4.10;;;;;;;27.98;48.55;94647.88;5133711;27;20441;-86
2022/07/08 10:41:58;;;;;;;6.00;4.10;;;;;;;27.94;49.00;94646.75;5134053;27;20449;-85
2022/07/08 10:44:49;;;;;;;5.07;4.67;;;;;;;28.18;48.19;94654.69;5133653;27;20450;-87
2022/07/08 10:47:18;;;;;;;4.43;4.00;;;;;;;28.19;50.01;94659.84;5090658;28;20436;-88
2022/07/08 10:49:46;;;;;;;4.40;4.10;;;;;;;28.34;48.93;94662.03;5090532;28;20440;-86
2022/07/08 10:52:14;;;;;;;6.93;4.83;;;;;;;28.06;46.91;94661.00;5090298;28;20459;-86
2022/07/08 10:54:42;;;;;;;5.23;4.77;;;;;;;28.07;47.36;94656.41;5090416;28;20510;-88
2022/07/08 10:57:15;;;;;;;5.90;4.50;;;;;;;28.04;48.99;94656.88;5090724;28;20433;-86
2022/07/08 10:59:46;;;;;;;5.40;4.90;;;;;;;28.26;47.77;94660.53;5090415;28;20456;-87
2022/07/08 11:02:15;;;;;;;4.40;4.10;;;;;;;28.57;47.73;94655.59;5090594;28;20448;-86
2022/07/08 11:04:47;;;;;;;4.33;4.03;;;;;;;28.57;44.85;94634.81;5090030;28;20517;-87
2022/07/08 11:07:30;;;;;;;3.60;3.40;;;;;;;28.46;46.49;94629.53;5090082;28;20440;-86
2022/07/08 11:10:03;;;;;;;3.83;3.47;;;;;;;28.33;47.33;94642.28;5089627;28;20521;-84
2022/07/08 11:12:32;;;;;;;4.27;3.97;;;;;;;28.18;49.22;94639.31;5090121;28;20445;-86
2022/07/08 11:15:01;;;;;;;3.93;3.63;;;;;;;28.22;47.03;94640.47;5040272;28;20917;-85
2022/07/08 11:17:31;;;;;;;4.90;4.00;;;;;;;27.94;48.29;94629.72;5089936;28;20448;-86
2022/07/08 11:19:59;;;;;;;4.40;4.10;;;;;;;27.55;47.94;94634.97;5090170;28;20444;-84
2022/07/08 11:22:27;;;;;;;4.30;3.40;;;;;;;27.28;49.42;94623.13;5090224;28;20527;-85
2022/07/08 11:24:55;;;;;;;4.77;4.37;;;;;;;27.03;48.95;94632.31;5120526;28;20810;-87
2022/07/08 11:27:28;;;;;;;4.13;3.83;;;;;;;27.25;50.64;94629.00;5097165;28;20437;-83
2022/07/08 11:29:56;;;;;;;4.20;3.90;;;;;;;27.43;48.78;94623.41;5133179;28;20434;-86
2022/07/08 11:32:25;;;;;;;4.33;3.90;;;;;;;27.30;49.88;94621.81;5133466;28;21014;-87
2022/07/08 11:34:53;;;;;;;4.30;3.90;;;;;;;26.93;51.40;94624.00;5133313;28;20534;-87
2022/07/08 11:37:20;;;;;;;12.33;4.97;;;;;;;26.40;55.82;94622.31;5133169;28;20467;-85
2022/07/08 11:39:47;;;;;;;6.30;4.77;;;;;;;25.90;57.39;94625.41;5097069;28;20434;-85